Fair Play, SC

7:47 AM EDT on September 27, 2016 (GMT -0400)
| | Change Station

Elev -9999 ft 0.00 °N, 0.00 °E | Updated

Partly Cloudy
Partly Cloudy
75 °F
Feels Like 75 °F
N
3
Wind Variable Wind from WSW
Gusts mph

Today
High -- | Low -- °F
--% Chance of Precip.
Yesterday
High -- | Low -- °F
Precip. -- in
Pressure 30.00 in
Visibility 6.0 miles
Clouds Few 300 ft
Dew Point 68 °F
Humidity 81%
Rainfall --
Snow Depth Not available.
7:24 AM 7:21 PM
Waning Crescent, 12% visible
SPECI KCEU 271132Z AUTO 18003KT 6SM BR FEW003 21/19 A3000 RMK AO2 T02110189
Pressure 30.00 in
Visibility 6.0 miles
Clouds Few 300 ft
Dew Point 68 °F
Humidity 81%
Rainfall --
Snow Depth Not available.
7:24 AM 7:21 PM
Waning Crescent, 12% visible
SPECI KCEU 271132Z AUTO 18003KT 6SM BR FEW003 21/19 A3000 RMK AO2 T02110189

10-Day Weather Forecast

Almanac

Astronomy

Sep. 27, 2016 Rise Set
Actual Time
Civil Twilight
Nautical Twilight
Astronomical Twilight
Moon
Length of Visible Light
Length of Day
Tomorrow will be .
, % of the Moon is Illuminated

Today's Extremes

State Highs State Lows

Community

WunderPhotos

Upload Photos

1,942,058 photos uploaded!

WunderBlog® & News

Nearby

Air Quality

  Air Quality AQ Index Pollutant
Not available.

Snow Depth

Station Depth Elevation

Earthquake Activity

City Distance Mag. Time & Date
Minimum magnitude displayed is 2.5.

Coastal Water Temperatures

Place Temperature

Stations

Nearby Weather Stations

Station Location Temp. Windchill Dew Point Humidity Wind Precip. Elev Updated Type
                   

Watches & Warnings

There are currently no watches in effect.